sensor_id;sensor_type;location;lat;lon;timestamp;pressure;altitude;pressure_sealevel;temperature;humidity
6938;BME280;40040;42.706;23.372;2022-07-21T00:02:03;149101.56;;;19.99;64.62
6938;BME280;40040;42.706;23.372;2022-07-21T00:04:30;149007.16;;;19.61;65.15
6938;BME280;40040;42.706;23.372;2022-07-21T00:06:57;149055.63;;;19.80;65.84
6938;BME280;40040;42.706;23.372;2022-07-21T00:09:24;149046.91;;;19.77;66.28
6938;BME280;40040;42.706;23.372;2022-07-21T00:11:51;149040.69;;;19.74;66.70
6938;BME280;40040;42.706;23.372;2022-07-21T00:14:20;149008.41;;;19.61;66.27
6938;BME280;40040;42.706;23.372;2022-07-21T00:16:47;149024.56;;;19.68;66.65
6938;BME280;40040;42.706;23.372;2022-07-21T00:19:14;149023.31;;;19.67;66.40
6938;BME280;40040;42.706;23.372;2022-07-21T00:21:41;148953.75;;;19.39;66.88
6938;BME280;40040;42.706;23.372;2022-07-21T00:24:08;149017.13;;;19.65;66.59
6938;BME280;40040;42.706;23.372;2022-07-21T00:26:35;149015.88;;;19.64;65.83
6938;BME280;40040;42.706;23.372;2022-07-21T00:29:03;149000.94;;;19.58;66.70
6938;BME280;40040;42.706;23.372;2022-07-21T00:31:31;149008.41;;;19.61;66.41
6938;BME280;40040;42.706;23.372;2022-07-21T00:33:58;149002.19;;;19.59;66.42
6938;BME280;40040;42.706;23.372;2022-07-21T00:36:25;148992.25;;;19.55;67.04
6938;BME280;40040;42.706;23.372;2022-07-21T00:38:51;148874.25;;;19.07;67.96
6938;BME280;40040;42.706;23.372;2022-07-21T00:41:18;148938.88;;;19.33;68.40
6938;BME280;40040;42.706;23.372;2022-07-21T00:43:45;148918.91;;;19.25;69.05
6938;BME280;40040;42.706;23.372;2022-07-21T00:46:12;148913.94;;;19.23;69.20
6938;BME280;40040;42.706;23.372;2022-07-21T00:48:40;148906.50;;;19.20;69.21
6938;BME280;40040;42.706;23.372;2022-07-21T00:51:07;148887.88;;;19.13;70.13
6938;BME280;40040;42.706;23.372;2022-07-21T00:53:34;148871.75;;;19.06;69.85
6938;BME280;40040;42.706;23.372;2022-07-21T00:56:01;148846.94;;;18.96;71.10
6938;BME280;40040;42.706;23.372;2022-07-21T00:58:28;148804.72;;;18.79;72.39
6938;BME280;40040;42.706;23.372;2022-07-21T01:00:55;148802.22;;;18.78;72.85
6938;BME280;40040;42.706;23.372;2022-07-21T01:03:22;148827.06;;;18.88;72.57
6938;BME280;40040;42.706;23.372;2022-07-21T01:05:51;148834.50;;;18.91;72.01
6938;BME280;40040;42.706;23.372;2022-07-21T01:08:18;148835.78;;;18.91;72.32
6938;BME280;40040;42.706;23.372;2022-07-21T01:10:45;148836.97;;;18.92;72.17
6938;BME280;40040;42.706;23.372;2022-07-21T01:13:12;148835.78;;;18.91;72.93
6938;BME280;40040;42.706;23.372;2022-07-21T01:15:39;148827.06;;;18.88;72.86
6938;BME280;40040;42.706;23.372;2022-07-21T01:18:06;148827.06;;;18.88;72.88
6938;BME280;40040;42.706;23.372;2022-07-21T01:20:35;148824.56;;;18.87;73.01
6938;BME280;40040;42.706;23.372;2022-07-21T01:23:03;148818.38;;;18.84;73.49
6938;BME280;40040;42.706;23.372;2022-07-21T01:25:30;148814.63;;;18.83;73.99
6938;BME280;40040;42.706;23.372;2022-07-21T01:27:57;148804.72;;;18.79;73.79
6938;BME280;40040;42.706;23.372;2022-07-21T01:30:24;148798.50;;;18.76;73.72
6938;BME280;40040;42.706;23.372;2022-07-21T01:32:51;148789.81;;;18.73;74.01
6938;BME280;40040;42.706;23.372;2022-07-21T01:35:18;148788.59;;;18.72;74.33
6938;BME280;40040;42.706;23.372;2022-07-21T01:37:46;148784.84;;;18.71;73.79
6938;BME280;40040;42.706;23.372;2022-07-21T01:40:16;148782.38;;;18.70;73.96
6938;BME280;40040;42.706;23.372;2022-07-21T01:43:00;148771.22;;;18.65;74.42
6938;BME280;40040;42.706;23.372;2022-07-21T01:45:27;148767.47;;;18.64;74.08
6938;BME280;40040;42.706;23.372;2022-07-21T01:47:54;148649.53;;;18.16;73.97
6938;BME280;40040;42.706;23.372;2022-07-21T01:50:21;148755.06;;;18.59;74.28
6938;BME280;40040;42.706;23.372;2022-07-21T01:52:52;148747.63;;;18.56;74.54
6938;BME280;40040;42.706;23.372;2022-07-21T01:55:21;148751.34;;;18.57;74.60
6938;BME280;40040;42.706;23.372;2022-07-21T01:57:48;148733.97;;;18.50;74.21
6938;BME280;40040;42.706;23.372;2022-07-21T02:00:16;148705.38;;;18.39;74.42
6938;BME280;40040;42.706;23.372;2022-07-21T02:02:43;148690.47;;;18.33;75.79
6938;BME280;40040;42.706;23.372;2022-07-21T02:05:10;148683.03;;;18.30;75.71
6938;BME280;40040;42.706;23.372;2022-07-21T02:07:37;148678.06;;;18.28;75.61
6938;BME280;40040;42.706;23.372;2022-07-21T02:10:05;148670.63;;;18.25;74.89
6938;BME280;40040;42.706;23.372;2022-07-21T02:12:33;148665.66;;;18.23;74.80
6938;BME280;40040;42.706;23.372;2022-07-21T02:15:00;148656.97;;;18.19;74.73
6938;BME280;40040;42.706;23.372;2022-07-21T02:17:27;148644.56;;;18.14;74.55
6938;BME280;40040;42.706;23.372;2022-07-21T02:19:53;148650.75;;;18.17;74.58
6938;BME280;40040;42.706;23.372;2022-07-21T02:22:20;148640.84;;;18.13;75.08
6938;BME280;40040;42.706;23.372;2022-07-21T02:24:47;148627.22;;;18.07;74.93
6938;BME280;40040;42.706;23.372;2022-07-21T02:27:14;148625.94;;;18.07;75.16
6938;BME280;40040;42.706;23.372;2022-07-21T02:29:42;148613.56;;;18.02;75.64
6938;BME280;40040;42.706;23.372;2022-07-21T02:32:09;148606.13;;;17.98;76.59
6938;BME280;40040;42.706;23.372;2022-07-21T02:34:36;148598.69;;;17.95;77.83
6938;BME280;40040;42.706;23.372;2022-07-21T02:37:03;148596.19;;;17.94;78.33
6938;BME280;40040;42.706;23.372;2022-07-21T02:39:30;148583.78;;;17.89;79.07
6938;BME280;40040;42.706;23.372;2022-07-21T02:41:56;148578.81;;;17.87;79.21
6938;BME280;40040;42.706;23.372;2022-07-21T02:44:24;148566.41;;;17.82;78.81
6938;BME280;40040;42.706;23.372;2022-07-21T02:46:53;148563.94;;;17.81;79.15
6938;BME280;40040;42.706;23.372;2022-07-21T02:49:19;148506.88;;;17.58;78.83
6938;BME280;40040;42.706;23.372;2022-07-21T02:51:46;148550.31;;;17.76;78.37
6938;BME280;40040;42.706;23.372;2022-07-21T02:54:13;148541.63;;;17.72;78.90
6938;BME280;40040;42.706;23.372;2022-07-21T02:56:40;148531.69;;;17.68;78.46
6938;BME280;40040;42.706;23.372;2022-07-21T02:59:07;148521.75;;;17.64;78.00
6938;BME280;40040;42.706;23.372;2022-07-21T03:01:33;148506.88;;;17.58;77.80
6938;BME280;40040;42.706;23.372;2022-07-21T03:04:02;148509.34;;;17.59;76.68
6938;BME280;40040;42.706;23.372;2022-07-21T03:06:29;148434.91;;;17.29;77.65
6938;BME280;40040;42.706;23.372;2022-07-21T03:08:55;148496.94;;;17.54;77.50
6938;BME280;40040;42.706;23.372;2022-07-21T03:11:22;148485.81;;;17.50;77.27
6938;BME280;40040;42.706;23.372;2022-07-21T03:13:49;148482.09;;;17.48;78.19
6938;BME280;40040;42.706;23.372;2022-07-21T03:16:16;148474.56;;;17.45;78.26
6938;BME280;40040;42.706;23.372;2022-07-21T03:18:43;148475.81;;;17.46;78.31
6938;BME280;40040;42.706;23.372;2022-07-21T03:21:11;148467.13;;;17.42;78.75
6938;BME280;40040;42.706;23.372;2022-07-21T03:23:38;148469.66;;;17.43;78.89
6938;BME280;40040;42.706;23.372;2022-07-21T03:26:05;148467.13;;;17.42;78.85
6938;BME280;40040;42.706;23.372;2022-07-21T03:28:32;148453.50;;;17.37;77.91
6938;BME280;40040;42.706;23.372;2022-07-21T03:30:58;148452.28;;;17.36;78.08
6938;BME280;40040;42.706;23.372;2022-07-21T03:33:25;148452.28;;;17.36;77.86
6938;BME280;40040;42.706;23.372;2022-07-21T03:35:52;148407.63;;;17.18;78.61
6938;BME280;40040;42.706;23.372;2022-07-21T03:38:20;148453.50;;;17.37;78.48
6938;BME280;40040;42.706;23.372;2022-07-21T03:40:47;148437.38;;;17.30;78.88
6938;BME280;40040;42.706;23.372;2022-07-21T03:43:14;148454.75;;;17.37;78.63
6938;BME280;40040;42.706;23.372;2022-07-21T03:45:41;148402.66;;;17.16;78.68
6938;BME280;40040;42.706;23.372;2022-07-21T03:48:08;148457.19;;;17.38;79.07
6938;BME280;40040;42.706;23.372;2022-07-21T03:50:37;148457.19;;;17.38;79.34
6938;BME280;40040;42.706;23.372;2022-07-21T03:53:04;148449.78;;;17.35;79.20
6938;BME280;40040;42.706;23.372;2022-07-21T03:55:33;148457.19;;;17.38;79.92
6938;BME280;40040;42.706;23.372;2022-07-21T03:58:02;148459.72;;;17.39;79.81
6938;BME280;40040;42.706;23.372;2022-07-21T04:00:31;148459.72;;;17.39;79.66
6938;BME280;40040;42.706;23.372;2022-07-21T04:02:59;148472.09;;;17.44;79.64
6938;BME280;40040;42.706;23.372;2022-07-21T04:05:27;148483.31;;;17.49;79.62
6938;BME280;40040;42.706;23.372;2022-07-21T04:07:55;148480.84;;;17.48;78.75
6938;BME280;40040;42.706;23.372;2022-07-21T04:10:24;148472.09;;;17.44;78.93
6938;BME280;40040;42.706;23.372;2022-07-21T04:12:53;148472.09;;;17.44;78.62
6938;BME280;40040;42.706;23.372;2022-07-21T04:15:20;148479.59;;;17.47;78.47
6938;BME280;40040;42.706;23.372;2022-07-21T04:17:48;148487.06;;;17.50;78.92
6938;BME280;40040;42.706;23.372;2022-07-21T04:20:16;148499.44;;;17.55;78.23
6938;BME280;40040;42.706;23.372;2022-07-21T04:22:44;148504.38;;;17.57;78.40
6938;BME280;40040;42.706;23.372;2022-07-21T04:25:12;148447.31;;;17.34;78.13
6938;BME280;40040;42.706;23.372;2022-07-21T04:27:40;148518.03;;;17.63;78.41
6938;BME280;40040;42.706;23.372;2022-07-21T04:30:11;148534.19;;;17.69;78.99
6938;BME280;40040;42.706;23.372;2022-07-21T04:32:38;148487.06;;;17.50;78.67
6938;BME280;40040;42.706;23.372;2022-07-21T04:35:06;148544.06;;;17.73;78.23
6938;BME280;40040;42.706;23.372;2022-07-21T04:37:34;148524.25;;;17.65;79.88
6938;BME280;40040;42.706;23.372;2022-07-21T04:40:02;148524.25;;;17.65;80.98
6938;BME280;40040;42.706;23.372;2022-07-21T04:42:30;148530.41;;;17.68;80.35
6938;BME280;40040;42.706;23.372;2022-07-21T04:44:57;148536.66;;;17.70;80.43
6938;BME280;40040;42.706;23.372;2022-07-21T04:47:25;148549.03;;;17.75;80.65
6938;BME280;40040;42.706;23.372;2022-07-21T04:49:52;148561.44;;;17.80;80.70
6938;BME280;40040;42.706;23.372;2022-07-21T04:52:19;148561.44;;;17.80;80.84
6938;BME280;40040;42.706;23.372;2022-07-21T04:54:46;148578.81;;;17.87;81.13
6938;BME280;40040;42.706;23.372;2022-07-21T04:57:13;148582.53;;;17.89;81.98
6938;BME280;40040;42.706;23.372;2022-07-21T04:59:39;148598.69;;;17.95;82.02
6938;BME280;40040;42.706;23.372;2022-07-21T05:02:06;148611.09;;;18.01;81.09
6938;BME280;40040;42.706;23.372;2022-07-21T05:04:35;148625.94;;;18.07;80.92
6938;BME280;40040;42.706;23.372;2022-07-21T05:07:01;148644.56;;;18.14;80.61
6938;BME280;40040;42.706;23.372;2022-07-21T05:09:28;148649.53;;;18.16;80.32
6938;BME280;40040;42.706;23.372;2022-07-21T05:11:55;148658.22;;;18.20;80.36
6938;BME280;40040;42.706;23.372;2022-07-21T05:14:22;148678.06;;;18.28;79.19
6938;BME280;40040;42.706;23.372;2022-07-21T05:16:49;148695.44;;;18.35;78.96
6938;BME280;40040;42.706;23.372;2022-07-21T05:19:16;148727.78;;;18.48;78.23
6938;BME280;40040;42.706;23.372;2022-07-21T05:21:44;148765.00;;;18.63;77.61
6938;BME280;40040;42.706;23.372;2022-07-21T05:24:12;148766.25;;;18.63;76.72
6938;BME280;40040;42.706;23.372;2022-07-21T05:26:40;148861.84;;;19.02;76.20
6938;BME280;40040;42.706;23.372;2022-07-21T05:29:06;148885.41;;;19.12;76.89
6938;BME280;40040;42.706;23.372;2022-07-21T05:31:33;148917.72;;;19.25;78.43
6938;BME280;40040;42.706;23.372;2022-07-21T05:34:00;148942.59;;;19.35;78.08
6938;BME280;40040;42.706;23.372;2022-07-21T05:36:27;148988.53;;;19.53;77.01
6938;BME280;40040;42.706;23.372;2022-07-21T05:38:55;149013.34;;;19.63;76.52
6938;BME280;40040;42.706;23.372;2022-07-21T05:41:22;149073.00;;;19.87;74.66
6938;BME280;40040;42.706;23.372;2022-07-21T05:43:48;149115.25;;;20.04;73.20
6938;BME280;40040;42.706;23.372;2022-07-21T05:46:16;149169.94;;;20.27;71.97
6938;BME280;40040;42.706;23.372;2022-07-21T05:48:43;149218.41;;;20.46;70.38
6938;BME280;40040;42.706;23.372;2022-07-21T05:51:09;149254.44;;;20.61;68.84
6938;BME280;40040;42.706;23.372;2022-07-21T05:53:37;149321.56;;;20.88;67.98
6938;BME280;40040;42.706;23.372;2022-07-21T05:56:05;149383.81;;;21.13;66.98
6938;BME280;40040;42.706;23.372;2022-07-21T05:58:33;149443.47;;;21.37;66.33
6938;BME280;40040;42.706;23.372;2022-07-21T06:01:00;149519.31;;;21.68;65.28
6938;BME280;40040;42.706;23.372;2022-07-21T06:03:39;149580.31;;;21.92;63.52
6938;BME280;40040;42.706;23.372;2022-07-21T06:06:07;149672.41;;;22.29;61.93
6938;BME280;40040;42.706;23.372;2022-07-21T06:08:36;149734.66;;;22.55;59.67
6938;BME280;40040;42.706;23.372;2022-07-21T06:11:04;149770.75;;;22.69;58.71
6938;BME280;40040;42.706;23.372;2022-07-21T06:13:32;149865.34;;;23.07;58.37
6938;BME280;40040;42.706;23.372;2022-07-21T06:15:59;149915.19;;;23.27;56.35
6938;BME280;40040;42.706;23.372;2022-07-21T06:18:26;149978.72;;;23.53;55.97
6938;BME280;40040;42.706;23.372;2022-07-21T06:20:53;149986.19;;;23.56;55.27
6938;BME280;40040;42.706;23.372;2022-07-21T06:23:20;150045.94;;;23.80;54.54
6938;BME280;40040;42.706;23.372;2022-07-21T06:25:47;150170.56;;;24.30;54.32
6938;BME280;40040;42.706;23.372;2022-07-21T06:28:15;150220.44;;;24.50;50.70
6938;BME280;40040;42.706;23.372;2022-07-21T06:30:42;150267.84;;;24.70;48.88
6938;BME280;40040;42.706;23.372;2022-07-21T06:33:09;150265.31;;;24.69;51.37
6938;BME280;40040;42.706;23.372;2022-07-21T06:35:36;150346.38;;;25.01;50.10
6938;BME280;40040;42.706;23.372;2022-07-21T06:38:03;150442.41;;;25.40;49.30
6938;BME280;40040;42.706;23.372;2022-07-21T06:40:30;150549.66;;;25.83;47.13
6938;BME280;40040;42.706;23.372;2022-07-21T06:42:57;150649.47;;;26.23;47.00
6938;BME280;40040;42.706;23.372;2022-07-21T06:45:25;150756.75;;;26.66;46.47
6938;BME280;40040;42.706;23.372;2022-07-21T06:47:59;150839.19;;;27.00;46.11
6938;BME280;40040;42.706;23.372;2022-07-21T06:50:26;150900.34;;;27.24;46.41
6938;BME280;40040;42.706;23.372;2022-07-21T06:52:53;150959.03;;;27.48;44.33
6938;BME280;40040;42.706;23.372;2022-07-21T06:55:20;151021.47;;;27.73;44.03
6938;BME280;40040;42.706;23.372;2022-07-21T06:57:47;150941.56;;;27.41;45.42
6938;BME280;40040;42.706;23.372;2022-07-21T07:00:14;151036.50;;;27.79;43.81
6938;BME280;40040;42.706;23.372;2022-07-21T07:02:43;151101.47;;;28.05;42.70
6938;BME280;40040;42.706;23.372;2022-07-21T07:05:10;151019.00;;;27.72;42.57
6938;BME280;40040;42.706;23.372;2022-07-21T07:07:37;151161.41;;;28.29;42.35
6938;BME280;40040;42.706;23.372;2022-07-21T07:10:05;151228.91;;;28.56;41.12
6938;BME280;40040;42.706;23.372;2022-07-21T07:12:32;151303.88;;;28.87;40.98
6938;BME280;40040;42.706;23.372;2022-07-21T07:14:59;151357.56;;;29.08;39.89
6938;BME280;40040;42.706;23.372;2022-07-21T07:17:26;151358.84;;;29.09;41.03
6938;BME280;40040;42.706;23.372;2022-07-21T07:19:54;151421.38;;;29.34;39.97
6938;BME280;40040;42.706;23.372;2022-07-21T07:22:21;151490.13;;;29.61;40.16
6938;BME280;40040;42.706;23.372;2022-07-21T07:24:48;151562.66;;;29.91;40.11
6938;BME280;40040;42.706;23.372;2022-07-21T07:27:15;151615.19;;;30.12;39.04
6938;BME280;40040;42.706;23.372;2022-07-21T07:29:42;151588.91;;;30.01;38.34
6938;BME280;40040;42.706;23.372;2022-07-21T07:32:08;151611.44;;;30.10;38.80
6938;BME280;40040;42.706;23.372;2022-07-21T07:34:35;151689.00;;;30.41;38.01
6938;BME280;40040;42.706;23.372;2022-07-21T07:37:04;151648.97;;;30.25;37.84
6938;BME280;40040;42.706;23.372;2022-07-21T07:39:30;151709.06;;;30.49;38.26
6938;BME280;40040;42.706;23.372;2022-07-21T07:41:57;151751.56;;;30.66;38.01
6938;BME280;40040;42.706;23.372;2022-07-21T07:44:24;151819.13;;;30.93;37.80
6938;BME280;40040;42.706;23.372;2022-07-21T07:46:51;151929.31;;;31.38;36.62
6938;BME280;40040;42.706;23.372;2022-07-21T07:49:18;151974.31;;;31.56;36.07
6938;BME280;40040;42.706;23.372;2022-07-21T07:51:45;152040.66;;;31.82;35.80
6938;BME280;40040;42.706;23.372;2022-07-21T07:54:13;152029.41;;;31.78;35.84
6938;BME280;40040;42.706;23.372;2022-07-21T07:56:40;151981.88;;;31.59;36.87
6938;BME280;40040;42.706;23.372;2022-07-21T07:59:07;152063.25;;;31.91;36.24
6938;BME280;40040;42.706;23.372;2022-07-21T08:01:34;152075.75;;;31.96;35.40
6938;BME280;40040;42.706;23.372;2022-07-21T08:04:01;152157.13;;;32.29;34.41
6938;BME280;40040;42.706;23.372;2022-07-21T08:06:28;152188.47;;;32.42;34.49
6938;BME280;40040;42.706;23.372;2022-07-21T08:08:55;152197.25;;;32.45;35.04
6938;BME280;40040;42.706;23.372;2022-07-21T08:11:23;152336.28;;;33.01;33.65
6938;BME280;40040;42.706;23.372;2022-07-21T08:13:50;152317.53;;;32.93;33.22
6938;BME280;40040;42.706;23.372;2022-07-21T08:16:17;152358.84;;;33.10;33.43
6938;BME280;40040;42.706;23.372;2022-07-21T08:18:44;152365.13;;;33.13;33.75
6938;BME280;40040;42.706;23.372;2022-07-21T08:21:11;152336.28;;;33.01;34.75
6938;BME280;40040;42.706;23.372;2022-07-21T08:23:38;152308.72;;;32.90;34.33
6938;BME280;40040;42.706;23.372;2022-07-21T08:26:05;152322.50;;;32.95;33.72
6938;BME280;40040;42.706;23.372;2022-07-21T08:28:33;152388.91;;;33.22;33.54
6938;BME280;40040;42.706;23.372;2022-07-21T08:31:00;152447.84;;;33.46;33.83
6938;BME280;40040;42.706;23.372;2022-07-21T08:33:27;152583.16;;;34.00;32.64
6938;BME280;40040;42.706;23.372;2022-07-21T08:35:54;152724.88;;;34.57;33.04
6938;BME280;40040;42.706;23.372;2022-07-21T08:38:21;152716.09;;;34.53;32.57
6938;BME280;40040;42.706;23.372;2022-07-21T08:40:48;152658.38;;;34.30;32.00
6938;BME280;40040;42.706;23.372;2022-07-21T08:43:15;152628.28;;;34.18;32.04
6938;BME280;40040;42.706;23.372;2022-07-21T08:45:43;152600.72;;;34.07;31.87
6938;BME280;40040;42.706;23.372;2022-07-21T08:48:10;152675.91;;;34.37;32.70
6938;BME280;40040;42.706;23.372;2022-07-21T08:50:40;152699.81;;;34.47;31.63
6938;BME280;40040;42.706;23.372;2022-07-21T08:53:07;152678.44;;;34.38;32.72
6938;BME280;40040;42.706;23.372;2022-07-21T08:55:36;152670.91;;;34.35;32.01
6938;BME280;40040;42.706;23.372;2022-07-21T08:58:04;152648.34;;;34.26;32.51
6938;BME280;40040;42.706;23.372;2022-07-21T09:00:31;152798.81;;;34.86;31.08
6938;BME280;40040;42.706;23.372;2022-07-21T09:03:16;152828.97;;;34.98;31.95
6938;BME280;40040;42.706;23.372;2022-07-21T09:05:59;152936.84;;;35.42;30.37
6938;BME280;40040;42.706;23.372;2022-07-21T09:08:29;152994.53;;;35.65;30.72
6938;BME280;40040;42.706;23.372;2022-07-21T09:11:13;153130.06;;;36.19;29.54
6938;BME280;40040;42.706;23.372;2022-07-21T09:13:41;153192.81;;;36.44;29.76
6938;BME280;40040;42.706;23.372;2022-07-21T09:16:08;153040.91;;;35.83;30.30
6938;BME280;40040;42.706;23.372;2022-07-21T09:18:48;152761.25;;;34.71;30.63
6938;BME280;40040;42.706;23.372;2022-07-21T09:21:16;152612.03;;;34.12;31.38
6938;BME280;40040;42.706;23.372;2022-07-21T09:23:43;152657.09;;;34.30;31.14
6938;BME280;40040;42.706;23.372;2022-07-21T09:26:11;152895.44;;;35.25;30.10
6938;BME280;40040;42.706;23.372;2022-07-21T09:28:40;153091.19;;;36.03;29.64
6938;BME280;40040;42.706;23.372;2022-07-21T09:31:08;153143.88;;;36.25;28.03
6938;BME280;40040;42.706;23.372;2022-07-21T09:33:37;153054.78;;;35.89;28.83
6938;BME280;40040;42.706;23.372;2022-07-21T09:36:07;153084.88;;;36.01;27.87
6938;BME280;40040;42.706;23.372;2022-07-21T09:38:37;153207.88;;;36.50;26.79
6938;BME280;40040;42.706;23.372;2022-07-21T09:41:10;153366.06;;;37.13;27.68
6938;BME280;40040;42.706;23.372;2022-07-21T09:43:40;153332.16;;;37.00;27.19
6938;BME280;40040;42.706;23.372;2022-07-21T09:46:13;153329.66;;;36.99;26.59
6938;BME280;40040;42.706;23.372;2022-07-21T09:48:41;153160.16;;;36.31;29.10
6938;BME280;40040;42.706;23.372;2022-07-21T09:51:28;153162.66;;;36.32;28.42
6938;BME280;40040;42.706;23.372;2022-07-21T09:53:58;153147.63;;;36.26;28.46
6938;BME280;40040;42.706;23.372;2022-07-21T09:56:27;153264.34;;;36.73;27.30
6938;BME280;40040;42.706;23.372;2022-07-21T09:58:56;153364.81;;;37.13;27.81
6938;BME280;40040;42.706;23.372;2022-07-21T10:01:24;153505.47;;;37.69;26.07
6938;BME280;40040;42.706;23.372;2022-07-21T10:03:52;153602.22;;;38.08;26.27
6938;BME280;40040;42.706;23.372;2022-07-21T10:06:24;153546.91;;;37.86;25.70
6938;BME280;40040;42.706;23.372;2022-07-21T10:08:53;153476.56;;;37.58;27.01
6938;BME280;40040;42.706;23.372;2022-07-21T10:11:21;153472.78;;;37.56;26.69
6938;BME280;40040;42.706;23.372;2022-07-21T10:13:48;153275.63;;;36.77;28.41
6938;BME280;40040;42.706;23.372;2022-07-21T10:16:16;153165.19;;;36.33;28.06
6938;BME280;40040;42.706;23.372;2022-07-21T10:18:52;153106.19;;;36.09;28.11
6938;BME280;40040;42.706;23.372;2022-07-21T10:21:30;153131.31;;;36.19;28.33
6938;BME280;40040;42.706;23.372;2022-07-21T10:24:00;153121.28;;;36.15;27.22
6938;BME280;40040;42.706;23.372;2022-07-21T10:26:27;153176.50;;;36.38;28.15
6938;BME280;40040;42.706;23.372;2022-07-21T10:28:53;153207.88;;;36.50;27.10
6938;BME280;40040;42.706;23.372;2022-07-21T10:31:22;153333.41;;;37.00;27.37
6938;BME280;40040;42.706;23.372;2022-07-21T10:33:55;153415.03;;;37.33;27.31
6938;BME280;40040;42.706;23.372;2022-07-21T10:36:42;153577.06;;;37.98;26.07
6938;BME280;40040;42.706;23.372;2022-07-21T10:39:21;153634.88;;;38.21;26.12
6938;BME280;40040;42.706;23.372;2022-07-21T10:41:50;153653.72;;;38.28;25.34
6938;BME280;40040;42.706;23.372;2022-07-21T10:44:45;153629.84;;;38.19;25.92
6938;BME280;40040;42.706;23.372;2022-07-21T10:47:14;153521.81;;;37.76;26.61
6938;BME280;40040;42.706;23.372;2022-07-21T10:49:44;153592.16;;;38.04;26.55
6938;BME280;40040;42.706;23.372;2022-07-21T10:55:37;153513.03;;;37.72;26.08
6938;BME280;40040;42.706;23.372;2022-07-21T10:58:16;153556.97;;;37.90;25.67
6938;BME280;40040;42.706;23.372;2022-07-21T11:00:45;153672.53;;;38.36;25.33
6938;BME280;40040;42.706;23.372;2022-07-21T11:03:16;153724.06;;;38.57;26.56
6938;BME280;40040;42.706;23.372;2022-07-21T11:06:20;153692.66;;;38.44;25.76
6938;BME280;40040;42.706;23.372;2022-07-21T11:08:50;153783.13;;;38.80;25.99
6938;BME280;40040;42.706;23.372;2022-07-21T11:11:20;153882.41;;;39.20;24.66
6938;BME280;40040;42.706;23.372;2022-07-21T11:14:02;153925.13;;;39.37;24.40
6938;BME280;40040;42.706;23.372;2022-07-21T11:19:40;154004.34;;;39.69;24.59
6938;BME280;40040;42.706;23.372;2022-07-21T11:22:11;153971.69;;;39.56;23.63
6938;BME280;40040;42.706;23.372;2022-07-21T11:24:39;153969.16;;;39.55;23.96
6938;BME280;40040;42.706;23.372;2022-07-21T11:27:09;153959.16;;;39.51;23.94
6938;BME280;40040;42.706;23.372;2022-07-21T11:29:39;153846.00;;;39.05;24.15
6938;BME280;40040;42.706;23.372;2022-07-21T11:32:07;153605.97;;;38.09;24.92
6938;BME280;40040;42.706;23.372;2022-07-21T11:34:43;153643.66;;;38.24;25.39
6938;BME280;40040;42.706;23.372;2022-07-21T11:37:12;153675.06;;;38.37;25.41
6938;BME280;40040;42.706;23.372;2022-07-21T11:39:39;153740.44;;;38.63;25.13
6938;BME280;40040;42.706;23.372;2022-07-21T11:42:10;153778.09;;;38.78;24.63
6938;BME280;40040;42.706;23.372;2022-07-21T11:44:39;153881.19;;;39.19;23.75
6938;BME280;40040;42.706;23.372;2022-07-21T11:47:09;153839.66;;;39.03;23.76
6938;BME280;40040;42.706;23.372;2022-07-21T11:49:37;153830.88;;;38.99;24.35
6938;BME280;40040;42.706;23.372;2022-07-21T11:52:06;153760.50;;;38.71;24.06
6938;BME280;40040;42.706;23.372;2022-07-21T11:54:35;153786.91;;;38.82;23.58
6938;BME280;40040;42.706;23.372;2022-07-21T11:57:04;153641.19;;;38.23;25.35
6938;BME280;40040;42.706;23.372;2022-07-21T11:59:33;153469.03;;;37.55;26.83
6938;BME280;40040;42.706;23.372;2022-07-21T12:02:04;153303.31;;;36.88;26.04
6938;BME280;40040;42.706;23.372;2022-07-21T12:04:38;153303.31;;;36.88;27.01
6938;BME280;40040;42.706;23.372;2022-07-21T12:07:09;153361.03;;;37.11;25.76
6938;BME280;40040;42.706;23.372;2022-07-21T12:09:37;153250.53;;;36.67;25.77
6938;BME280;40040;42.706;23.372;2022-07-21T12:12:04;153302.03;;;36.88;26.98
6938;BME280;40040;42.706;23.372;2022-07-21T12:14:47;153249.28;;;36.67;27.20
6938;BME280;40040;42.706;23.372;2022-07-21T12:17:16;153185.28;;;36.41;27.66
6938;BME280;40040;42.706;23.372;2022-07-21T12:19:43;153052.28;;;35.88;26.91
6938;BME280;40040;42.706;23.372;2022-07-21T12:22:11;152882.91;;;35.20;28.43
6938;BME280;40040;42.706;23.372;2022-07-21T12:24:50;152803.84;;;34.88;29.22
6938;BME280;40040;42.706;23.372;2022-07-21T12:27:18;152859.03;;;35.10;28.40
6938;BME280;40040;42.706;23.372;2022-07-21T12:29:46;152889.13;;;35.23;28.15
6938;BME280;40040;42.706;23.372;2022-07-21T12:32:14;152915.47;;;35.33;29.15
6938;BME280;40040;42.706;23.372;2022-07-21T12:34:51;152931.75;;;35.40;29.10
6938;BME280;40040;42.706;23.372;2022-07-21T12:37:18;152946.88;;;35.46;28.43
6938;BME280;40040;42.706;23.372;2022-07-21T12:40:00;152900.44;;;35.27;28.68
6938;BME280;40040;42.706;23.372;2022-07-21T12:42:29;152975.69;;;35.57;28.56
6938;BME280;40040;42.706;23.372;2022-07-21T12:44:58;152998.28;;;35.66;29.15
6938;BME280;40040;42.706;23.372;2022-07-21T12:47:25;153028.38;;;35.78;31.05
6938;BME280;40040;42.706;23.372;2022-07-21T12:50:00;152938.09;;;35.42;29.35
6938;BME280;40040;42.706;23.372;2022-07-21T12:52:28;152928.00;;;35.38;28.88
6938;BME280;40040;42.706;23.372;2022-07-21T12:54:56;152919.22;;;35.35;29.14
6938;BME280;40040;42.706;23.372;2022-07-21T12:57:26;152910.44;;;35.31;28.94
6938;BME280;40040;42.706;23.372;2022-07-21T12:59:54;152885.38;;;35.21;30.05
6938;BME280;40040;42.706;23.372;2022-07-21T13:02:24;152833.97;;;35.00;29.99
6938;BME280;40040;42.706;23.372;2022-07-21T13:04:52;152820.19;;;34.95;30.34